Observation data for White River Lake on 01/19/2019      Previous  Date  Next       Current Mesonet Observations  Soil Data  Daily Summary Page  Observations in Plain Language
KWVS 190600Z 33026G35KT 03/M03 A30 RMK A01 T00281029  RH  067%=      5-min Rain = 0
KWVS 190605Z 33031G40KT 02/M03 A30 RMK A01 T00241026  RH  070%=      5-min Rain = 0
KWVS 190610Z 33026G37KT 01/M02 A3001 RMK A01 T00141016  RH  081%=      5-min Rain = 0
KWVS 190615Z 33024G29KT 01/M01 A3001 RMK A01 T00121010  RH  086%=      5-min Rain = 0
KWVS 190620Z 33023G30KT 01/M01 A3001 RMK A01 T00101009  RH  088%=      5-min Rain = 0
KWVS 190625Z 33024G30KT 01/M01 A3001 RMK A01 T00121009  RH  087%=      5-min Rain = 0
KWVS 190630Z 33027G35KT 01/M01 A3002 RMK A01 T00141011  RH  085%=      5-min Rain = 0
KWVS 190635Z 33028G38KT 01/M01 A3002 RMK A01 T00121012  RH  085%=      5-min Rain = 0
KWVS 190640Z 33026G36KT 01/M01 A3002 RMK A01 T00101013  RH  086%=      5-min Rain = 0
KWVS 190645Z 34026G35KT 01/M01 A3002 RMK A01 T00071013  RH  087%=      5-min Rain = 0
KWVS 190650Z 33021G31KT 01/M01 A3003 RMK A01 T00071012  RH  088%=      5-min Rain = 0
KWVS 190655Z 34023G29KT 01/M02 A3003 RMK A01 T00101016  RH  084%=      5-min Rain = 0
KWVS 190700Z 33023G31KT 01/M02 A3003 RMK A01 T00111020  RH  080%=      5-min Rain = 0
KWVS 190705Z 34020G26KT 01/M02 A3004 RMK A01 T00121020  RH  080%=      5-min Rain = 0
KWVS 190710Z 33021G28KT 01/M02 A3004 RMK A01 T00131020  RH  080%=      5-min Rain = 0
KWVS 190715Z 33020G26KT 01/M02 A3004 RMK A01 T00131019  RH  080%=      5-min Rain = 0
KWVS 190720Z 33024G32KT 01/M02 A3004 RMK A01 T00131018  RH  080%=      5-min Rain = 0
KWVS 190725Z 33022G28KT 01/M02 A3004 RMK A01 T00131017  RH  081%=      5-min Rain = 0
KWVS 190730Z 33022G31KT 01/M02 A3005 RMK A01 T00131015  RH  083%=      5-min Rain = 0
KWVS 190735Z 33020G27KT 01/M01 A3005 RMK A01 T00121013  RH  084%=      5-min Rain = 0
KWVS 190740Z 34017G24KT 01/M01 A3005 RMK A01 T00121012  RH  085%=      5-min Rain = 0
KWVS 190745Z 34019G25KT 01/M01 A3005 RMK A01 T00131012  RH  084%=      5-min Rain = 0
KWVS 190750Z 34018KT 02/M01 A3005 RMK A01 T00151013  RH  082%=      5-min Rain = 0
KWVS 190755Z 33019G24KT 02/M02 A3005 RMK A01 T00171015  RH  080%=      5-min Rain = 0
KWVS 190800Z 33020G29KT 02/M02 A3005 RMK A01 T00191016  RH  078%=      5-min Rain = 0
KWVS 190805Z 33019G26KT 02/M02 A3005 RMK A01 T00211017  RH  077%=      5-min Rain = 0
KWVS 190810Z 33020G26KT 02/M02 A3005 RMK A01 T00211018  RH  076%=      5-min Rain = 0
KWVS 190815Z 33017G22KT 02/M02 A3006 RMK A01 T00211017  RH  077%=      5-min Rain = 0
KWVS 190820Z 33016KT 02/M02 A3006 RMK A01 T00201017  RH  077%=      5-min Rain = 0
KWVS 190825Z 33018G25KT 02/M02 A3006 RMK A01 T00211018  RH  076%=      5-min Rain = 0
KWVS 190830Z 33020KT 02/M02 A3006 RMK A01 T00211021  RH  074%=      5-min Rain = 0
KWVS 190835Z 33018KT 02/M02 A3006 RMK A01 T00201022  RH  074%=      5-min Rain = 0
KWVS 190840Z 33016G23KT 02/M02 A3007 RMK A01 T00181023  RH  075%=      5-min Rain = 0
KWVS 190845Z 33018G23KT 02/M02 A3007 RMK A01 T00191024  RH  074%=      5-min Rain = 0
KWVS 190850Z 33020G26KT 02/M03 A3007 RMK A01 T00191027  RH  072%=      5-min Rain = 0
KWVS 190855Z 33024G32KT 02/M03 A3007 RMK A01 T00191030  RH  070%=      5-min Rain = 0
KWVS 190900Z 33024G34KT 02/M03 A3007 RMK A01 T00191034  RH  068%=      5-min Rain = 0
KWVS 190905Z 33021G26KT 02/M03 A3008 RMK A01 T00171034  RH  069%=      5-min Rain = 0
KWVS 190910Z 32018G24KT 02/M03 A3008 RMK A01 T00151033  RH  071%=      5-min Rain = 0
KWVS 190915Z 33019G24KT 02/M03 A3008 RMK A01 T00151034  RH  071%=      5-min Rain = 0
KWVS 190920Z 33020G26KT 01/M04 A3009 RMK A01 T00131036  RH  070%=      5-min Rain = 0
KWVS 190925Z 33022G31KT 01/M04 A3009 RMK A01 T00131039  RH  068%=      5-min Rain = 0
KWVS 190930Z 33024G33KT 01/M04 A3009 RMK A01 T00141044  RH  066%=      5-min Rain = 0
KWVS 190935Z 33025G34KT 01/M05 A3009 RMK A01 T00131045  RH  065%=      5-min Rain = 0
KWVS 190940Z 33023G30KT 01/M05 A3009 RMK A01 T00121046  RH  065%=      5-min Rain = 0
KWVS 190945Z 33020G29KT 01/M05 A3009 RMK A01 T00111045  RH  066%=      5-min Rain = 0
KWVS 190950Z 33019G28KT 01/M05 A301 RMK A01 T00101045  RH  067%=      5-min Rain = 0
KWVS 190955Z 33022G28KT 01/M05 A301 RMK A01 T00091045  RH  067%=      5-min Rain = 0
KWVS 191000Z 33022G29KT 01/M05 A301 RMK A01 T00081047  RH  067%=      5-min Rain = 0
KWVS 191005Z 33020G28KT 01/M05 A3011 RMK A01 T00071048  RH  067%=      5-min Rain = 0
KWVS 191010Z 33022KT 01/M05 A3011 RMK A01 T00061048  RH  067%=      5-min Rain = 0
KWVS 191015Z 33022G29KT 01/M05 A3011 RMK A01 T00051049  RH  067%=      5-min Rain = 0
KWVS 191020Z 33022G31KT 01/M05 A3011 RMK A01 T00051050  RH  067%=      5-min Rain = 0
KWVS 191025Z 33020G28KT 00/M05 A3012 RMK A01 T00031049  RH  068%=      5-min Rain = 0
KWVS 191030Z 33020KT 00/M05 A3013 RMK A01 T00031049  RH  068%=      5-min Rain = 0
KWVS 191035Z 33020G25KT 00/M05 A3013 RMK A01 T00031049  RH  068%=      5-min Rain = 0
KWVS 191040Z 33018G23KT 00/M05 A3014 RMK A01 T00021049  RH  068%=      5-min Rain = 0
KWVS 191045Z 33017G23KT 00/M05 A3014 RMK A01 T00021050  RH  068%=      5-min Rain = 0
KWVS 191050Z 33018G24KT 00/M05 A3014 RMK A01 T00021050  RH  068%=      5-min Rain = 0
KWVS 191055Z 33017G22KT 00/M05 A3014 RMK A01 T00021050  RH  068%=      5-min Rain = 0
KWVS 191100Z 33017G23KT 00/M05 A3015 RMK A01 T00011050  RH  069%=      5-min Rain = 0
KWVS 191105Z 33018G27KT 00/M05 A3015 RMK A01 T00011050  RH  069%=      5-min Rain = 0
KWVS 191110Z 32016G22KT 00/M05 A3015 RMK A01 T00011050  RH  069%=      5-min Rain = 0
KWVS 191115Z 33016G22KT 00/M05 A3015 RMK A01 T00011050  RH  069%=      5-min Rain = 0
KWVS 191120Z 32016G21KT 00/05 A3016 RMK A01 T00-00-50  RH  070%=      5-min Rain = 0
KWVS 191125Z 32013KT M00/M05 A3017 RMK A01 T10031049  RH  072%=      5-min Rain = 0
KWVS 191130Z 32013G18KT M01/M05 A3017 RMK A01 T10051047  RH  073%=      5-min Rain = 0
KWVS 191135Z 32016G21KT M01/M05 A3018 RMK A01 T10061048  RH  073%=      5-min Rain = 0
KWVS 191140Z 32016G22KT M01/M05 A3018 RMK A01 T10061049  RH  073%=      5-min Rain = 0
KWVS 191145Z 32016G22KT M01/M05 A3018 RMK A01 T10081050  RH  073%=      5-min Rain = 0
KWVS 191150Z 33018G24KT M01/M05 A3017 RMK A01 T10071050  RH  073%=      5-min Rain = 0
KWVS 191155Z 32019G26KT M01/M05 A3017 RMK A01 T10071050  RH  073%=      5-min Rain = 0
KWVS 191200Z 32019G25KT M01/M05 A3017 RMK A01 T10071050  RH  073%=      5-min Rain = 0
KWVS 191205Z 32019G25KT M01/M05 A3017 RMK A01 T10081050  RH  073%=      5-min Rain = 0
KWVS 191210Z 32020G25KT M01/M05 A3017 RMK A01 T10081050  RH  074%=      5-min Rain = 0
KWVS 191215Z 33020KT M01/M05 A3017 RMK A01 T10081050  RH  073%=      5-min Rain = 0
KWVS 191220Z 32019G25KT M01/M05 A3017 RMK A01 T10081050  RH  073%=      5-min Rain = 0
KWVS 191225Z 33018G25KT M01/M05 A3017 RMK A01 T10081050  RH  073%=      5-min Rain = 0
KWVS 191230Z 32018KT M01/M05 A3017 RMK A01 T10081051  RH  073%=      5-min Rain = 0
KWVS 191235Z 32018G23KT M01/M05 A3018 RMK A01 T10081050  RH  073%=      5-min Rain = 0
KWVS 191240Z 32018G23KT M01/M05 A3018 RMK A01 T10081050  RH  073%=      5-min Rain = 0
KWVS 191245Z 33017G25KT M01/M05 A3017 RMK A01 T10081050  RH  074%=      5-min Rain = 0
KWVS 191250Z 33017G22KT M01/M05 A3018 RMK A01 T10071050  RH  073%=      5-min Rain = 0
KWVS 191255Z 33016KT M01/M05 A3018 RMK A01 T10081050  RH  073%=      5-min Rain = 0
KWVS 191300Z 32016G21KT M01/M05 A3018 RMK A01 T10071050  RH  073%=      5-min Rain = 0
KWVS 191305Z 32015G20KT M01/M05 A3019 RMK A01 T10081050  RH  073%=      5-min Rain = 0
KWVS 191310Z 32015G20KT M01/M05 A302 RMK A01 T10081050  RH  073%=      5-min Rain = 0
KWVS 191315Z 32013KT M01/M05 A302 RMK A01 T10101050  RH  074%=      5-min Rain = 0
KWVS 191320Z 32012G18KT M01/M05 A302 RMK A01 T10111050  RH  075%=      5-min Rain = 0
KWVS 191325Z 32013G19KT M01/M05 A3021 RMK A01 T10121050  RH  076%=      5-min Rain = 0
KWVS 191330Z 32013KT M01/M05 A3021 RMK A01 T10111049  RH  075%=      5-min Rain = 0
KWVS 191335Z 32015G21KT M01/M05 A3021 RMK A01 T10101049  RH  075%=      5-min Rain = 0
KWVS 191340Z 32015KT M01/M05 A3022 RMK A01 T10091049  RH  075%=      5-min Rain = 0
KWVS 191345Z 32015KT M01/M05 A3022 RMK A01 T10091049  RH  075%=      5-min Rain = 0
KWVS 191350Z 32014KT M01/M05 A3022 RMK A01 T10101049  RH  075%=      5-min Rain = 0
KWVS 191355Z 32016G21KT M01/M05 A3022 RMK A01 T10091049  RH  075%=      5-min Rain = 0
KWVS 191400Z 32016G21KT M01/M05 A3022 RMK A01 T10081049  RH  074%=      5-min Rain = 0
KWVS 191405Z 32015KT M01/M05 A3022 RMK A01 T10071048  RH  074%=      5-min Rain = 0
KWVS 191410Z 33014G20KT M01/M05 A3023 RMK A01 T10071048  RH  074%=      5-min Rain = 0
KWVS 191415Z 32014G19KT M01/M05 A3023 RMK A01 T10061048  RH  074%=      5-min Rain = 0
KWVS 191420Z 32017KT M00/M05 A3024 RMK A01 T10041048  RH  073%=      5-min Rain = 0
KWVS 191425Z 32017KT M00/M05 A3024 RMK A01 T10031048  RH  072%=      5-min Rain = 0
KWVS 191430Z 33017G23KT M00/M05 A3025 RMK A01 T10011047  RH  071%=      5-min Rain = 0
KWVS 191435Z 32016G23KT 00/05 A3025 RMK A01 T00000-47  RH  071%=      5-min Rain = 0
KWVS 191440Z 32017G24KT 00/M05 A3025 RMK A01 T00011047  RH  070%=      5-min Rain = 0
KWVS 191445Z 32017KT 00/M05 A3026 RMK A01 T00031047  RH  070%=      5-min Rain = 0
KWVS 191450Z 32018G25KT 00/M05 A3026 RMK A01 T00041047  RH  069%=      5-min Rain = 0
KWVS 191455Z 32017G23KT 01/M05 A3026 RMK A01 T00061046  RH  068%=      5-min Rain = 0
KWVS 191500Z 33016G21KT 01/M05 A3026 RMK A01 T00081046  RH  067%=      5-min Rain = 0
KWVS 191505Z 33019G26KT 01/M05 A3027 RMK A01 T00091047  RH  067%=      5-min Rain = 0
KWVS 191510Z 33019G24KT 01/M05 A3027 RMK A01 T00101047  RH  066%=      5-min Rain = 0
KWVS 191515Z 33018G24KT 01/M05 A3028 RMK A01 T00111046  RH  066%=      5-min Rain = 0
KWVS 191520Z 33018G24KT 01/M05 A3028 RMK A01 T00121046  RH  065%=      5-min Rain = 0
KWVS 191525Z 33015G20KT 02/M05 A3028 RMK A01 T00161045  RH  064%=      5-min Rain = 0
KWVS 191530Z 33021G29KT 02/M05 A3029 RMK A01 T00171046  RH  063%=      5-min Rain = 0
KWVS 191535Z 33018G25KT 02/M05 A3029 RMK A01 T00181045  RH  063%=      5-min Rain = 0
KWVS 191540Z 34020KT 02/M05 A303 RMK A01 T00201046  RH  062%=      5-min Rain = 0
KWVS 191545Z 34019G24KT 02/M05 A303 RMK A01 T00221045  RH  061%=      5-min Rain = 0
KWVS 191550Z 33021G26KT 02/M05 A303 RMK A01 T00221046  RH  061%=      5-min Rain = 0
KWVS 191555Z 33019G25KT 02/M05 A303 RMK A01 T00231045  RH  061%=      5-min Rain = 0
KWVS 191600Z 34018KT 03/M04 A303 RMK A01 T00261044  RH  060%=      5-min Rain = 0
KWVS 191605Z 34017G22KT 03/M04 A303 RMK A01 T00291044  RH  059%=      5-min Rain = 0
KWVS 191610Z 33020G27KT 03/M04 A303 RMK A01 T00311044  RH  058%=      5-min Rain = 0
KWVS 191615Z 34017G22KT 03/M04 A303 RMK A01 T00341043  RH  057%=      5-min Rain = 0
KWVS 191620Z 34019G26KT 04/M04 A303 RMK A01 T00351043  RH  057%=      5-min Rain = 0
KWVS 191625Z 33019G24KT 04/M04 A303 RMK A01 T00381043  RH  056%=      5-min Rain = 0
KWVS 191630Z 34018KT 04/M04 A303 RMK A01 T00401042  RH  055%=      5-min Rain = 0
KWVS 191635Z 34018G24KT 04/M04 A303 RMK A01 T00401042  RH  055%=      5-min Rain = 0
KWVS 191640Z 34019G26KT 04/M04 A303 RMK A01 T00411042  RH  055%=      5-min Rain = 0
KWVS 191645Z 33020KT 04/M04 A303 RMK A01 T00441041  RH  054%=      5-min Rain = 0
KWVS 191650Z 34018G25KT 05/M04 A3031 RMK A01 T00461041  RH  054%=      5-min Rain = 0
KWVS 191655Z 33020G25KT 05/M04 A303 RMK A01 T00511040  RH  052%=      5-min Rain = 0
KWVS 191700Z 33021G27KT 05/M04 A3031 RMK A01 T00471042  RH  053%=      5-min Rain = 0
KWVS 191705Z 34018G23KT 05/M04 A3031 RMK A01 T00501040  RH  052%=      5-min Rain = 0
KWVS 191710Z 34018KT 06/M04 A3031 RMK A01 T00551039  RH  051%=      5-min Rain = 0
KWVS 191715Z 33018KT 06/M04 A3031 RMK A01 T00561039  RH  050%=      5-min Rain = 0
KWVS 191720Z 34020G27KT 06/M04 A3031 RMK A01 T00571042  RH  049%=      5-min Rain = 0
KWVS 191725Z 34019KT 06/M04 A3031 RMK A01 T00561042  RH  050%=      5-min Rain = 0
KWVS 191730Z 33018G25KT 06/M04 A3031 RMK A01 T00591041  RH  049%=      5-min Rain = 0
KWVS 191735Z 33019KT 06/M04 A3031 RMK A01 T00581042  RH  049%=      5-min Rain = 0
KWVS 191740Z 33018G23KT 06/M04 A3031 RMK A01 T00611040  RH  048%=      5-min Rain = 0
KWVS 191745Z 35018G23KT 06/M04 A3031 RMK A01 T00611041  RH  048%=      5-min Rain = 0
KWVS 191750Z 34018G23KT 06/M04 A3031 RMK A01 T00631040  RH  048%=      5-min Rain = 0
KWVS 191755Z 35018G24KT 06/M04 A3031 RMK A01 T00631040  RH  048%=      5-min Rain = 0
KWVS 191800Z 34016G21KT 07/M04 A3031 RMK A01 T00651038  RH  048%=      5-min Rain = 0
KWVS 191805Z 35015G20KT 07/M04 A3031 RMK A01 T00691037  RH  047%=      5-min Rain = 0
KWVS 191810Z 35016G22KT 07/M04 A3031 RMK A01 T00691038  RH  046%=      5-min Rain = 0
KWVS 191815Z 33016G22KT 07/M04 A303 RMK A01 T00721038  RH  046%=      5-min Rain = 0
KWVS 191820Z 34017G22KT 08/M04 A303 RMK A01 T00751038  RH  045%=      5-min Rain = 0
KWVS 191825Z 35017G23KT 08/M04 A303 RMK A01 T00801039  RH  043%=      5-min Rain = 0
KWVS 191830Z 35016G23KT 08/M04 A303 RMK A01 T00841037  RH  043%=      5-min Rain = 0
KWVS 191835Z 34016G26KT 08/M04 A303 RMK A01 T00831037  RH  043%=      5-min Rain = 0
KWVS 191840Z 34020G26KT 08/M04 A3029 RMK A01 T00801041  RH  042%=      5-min Rain = 0
KWVS 191845Z 34019G24KT 08/M04 A3029 RMK A01 T00811041  RH  042%=      5-min Rain = 0
KWVS 191850Z 33019G25KT 08/M04 A3029 RMK A01 T00841040  RH  041%=      5-min Rain = 0
KWVS 191855Z 33018G27KT 09/M04 A3029 RMK A01 T00861041  RH  041%=      5-min Rain = 0
KWVS 191900Z 34018G24KT 09/M04 A3029 RMK A01 T00861043  RH  040%=      5-min Rain = 0
KWVS 191905Z 33016G21KT 09/M04 A3029 RMK A01 T00881042  RH  040%=      5-min Rain = 0
KWVS 191910Z 33015G22KT 09/M04 A3028 RMK A01 T00891041  RH  040%=      5-min Rain = 0
KWVS 191915Z 34018G23KT 09/M05 A3028 RMK A01 T00891045  RH  039%=      5-min Rain = 0
KWVS 191920Z 34017G26KT 09/M04 A3028 RMK A01 T00921044  RH  038%=      5-min Rain = 0
KWVS 191925Z 34018G25KT 10/M05 A3028 RMK A01 T00951046  RH  037%=      5-min Rain = 0
KWVS 191930Z 33017KT 10/M05 A3028 RMK A01 T00951046  RH  037%=      5-min Rain = 0
KWVS 191935Z 33016G21KT 10/M04 A3028 RMK A01 T00981043  RH  037%=      5-min Rain = 0
KWVS 191940Z 33017G22KT 10/M04 A3028 RMK A01 T00991044  RH  036%=      5-min Rain = 0
KWVS 191945Z 34017G24KT 10/M05 A3027 RMK A01 T00981045  RH  036%=      5-min Rain = 0
KWVS 191950Z 33016G23KT 10/M05 A3027 RMK A01 T01011046  RH  035%=      5-min Rain = 0
KWVS 191955Z 34015G20KT 10/M05 A3027 RMK A01 T01011046  RH  035%=      5-min Rain = 0
KWVS 192000Z 34015G23KT 10/M05 A3027 RMK A01 T01031046  RH  035%=      5-min Rain = 0
KWVS 192005Z 33019G25KT 10/M05 A3026 RMK A01 T01031051  RH  033%=      5-min Rain = 0
KWVS 192010Z 33020G27KT 10/M05 A3026 RMK A01 T01021051  RH  034%=      5-min Rain = 0
KWVS 192015Z 34020G27KT 10/M05 A3026 RMK A01 T01031052  RH  033%=      5-min Rain = 0
KWVS 192020Z 34022KT 10/M05 A3025 RMK A01 T01021053  RH  033%=      5-min Rain = 0
KWVS 192025Z 33018G25KT 10/M05 A3025 RMK A01 T01041051  RH  033%=      5-min Rain = 0
KWVS 192030Z 34021G27KT 11/M05 A3025 RMK A01 T01061054  RH  032%=      5-min Rain = 0
KWVS 192035Z 34019G26KT 11/M05 A3025 RMK A01 T01071052  RH  032%=      5-min Rain = 0
KWVS 192040Z 34019G25KT 11/M05 A3025 RMK A01 T01081053  RH  032%=      5-min Rain = 0
KWVS 192045Z 34018G23KT 11/M05 A3025 RMK A01 T01071054  RH  032%=      5-min Rain = 0
KWVS 192050Z 33016G24KT 11/M05 A3025 RMK A01 T01091051  RH  032%=      5-min Rain = 0
KWVS 192055Z 34018G23KT 11/M05 A3025 RMK A01 T01071053  RH  032%=      5-min Rain = 0
KWVS 192100Z 33017G23KT 11/M05 A3025 RMK A01 T01111052  RH  031%=      5-min Rain = 0
KWVS 192105Z 32020G27KT 11/M06 A3025 RMK A01 T01131058  RH  030%=      5-min Rain = 0
KWVS 192110Z 34016KT 12/M05 A3025 RMK A01 T01161053  RH  030%=      5-min Rain = 0
KWVS 192115Z 33019G27KT 11/M06 A3025 RMK A01 T01141059  RH  029%=      5-min Rain = 0
KWVS 192120Z 34020G25KT 11/M06 A3025 RMK A01 T01111056  RH  031%=      5-min Rain = 0
KWVS 192125Z 34018G25KT 11/M06 A3025 RMK A01 T01131055  RH  030%=      5-min Rain = 0
KWVS 192130Z 35020G28KT 11/M06 A3025 RMK A01 T01101057  RH  030%=      5-min Rain = 0
KWVS 192135Z 34020KT 11/M06 A3024 RMK A01 T01101056  RH  031%=      5-min Rain = 0
KWVS 192140Z 33019G25KT 11/M06 A3024 RMK A01 T01091056  RH  031%=      5-min Rain = 0
KWVS 192145Z 35018G23KT 11/M06 A3024 RMK A01 T01121055  RH  030%=      5-min Rain = 0
KWVS 192150Z 34017G22KT 11/M06 A3025 RMK A01 T01121055  RH  031%=      5-min Rain = 0
KWVS 192155Z 35018G24KT 11/M06 A3025 RMK A01 T01111055  RH  031%=      5-min Rain = 0
KWVS 192200Z 34017G22KT 11/M05 A3025 RMK A01 T01111054  RH  031%=      5-min Rain = 0
KWVS 192205Z 34017KT 11/M05 A3025 RMK A01 T01111054  RH  031%=      5-min Rain = 0
KWVS 192210Z 34015G21KT 11/M05 A3025 RMK A01 T01111054  RH  031%=      5-min Rain = 0
KWVS 192215Z 35018KT 11/M06 A3025 RMK A01 T01091056  RH  031%=      5-min Rain = 0
KWVS 192220Z 34017G22KT 11/M06 A3025 RMK A01 T01101055  RH  031%=      5-min Rain = 0
KWVS 192225Z 33017KT 11/M06 A3025 RMK A01 T01101055  RH  031%=      5-min Rain = 0
KWVS 192230Z 35016G21KT 11/M06 A3025 RMK A01 T01091055  RH  031%=      5-min Rain = 0
KWVS 192235Z 34016KT 11/M06 A3025 RMK A01 T01081056  RH  031%=      5-min Rain = 0
KWVS 192240Z 34015KT 11/M06 A3026 RMK A01 T01071055  RH  032%=      5-min Rain = 0
KWVS 192245Z 35014KT 11/M05 A3026 RMK A01 T01071054  RH  032%=      5-min Rain = 0
KWVS 192250Z 34014KT 11/M05 A3026 RMK A01 T01071054  RH  032%=      5-min Rain = 0
KWVS 192255Z 34014KT 11/M05 A3026 RMK A01 T01061054  RH  032%=      5-min Rain = 0
KWVS 192300Z 34013KT 11/M05 A3025 RMK A01 T01061053  RH  032%=      5-min Rain = 0
KWVS 192305Z 35011KT 11/M05 A3026 RMK A01 T01051053  RH  033%=      5-min Rain = 0
KWVS 192310Z 35013KT 10/M05 A3026 RMK A01 T01031053  RH  033%=      5-min Rain = 0
KWVS 192315Z 35014KT 10/M05 A3025 RMK A01 T01011054  RH  033%=      5-min Rain = 0
KWVS 192320Z 35012KT 10/M05 A3025 RMK A01 T01001053  RH  034%=      5-min Rain = 0
KWVS 192325Z 35011KT 10/M05 A3025 RMK A01 T00991053  RH  034%=      5-min Rain = 0
KWVS 192330Z 35011KT 10/M05 A3025 RMK A01 T00971053  RH  035%=      5-min Rain = 0
KWVS 192335Z 35011KT 09/M05 A3025 RMK A01 T00941052  RH  035%=      5-min Rain = 0
KWVS 192340Z 36009KT 09/M05 A3025 RMK A01 T00921052  RH  036%=      5-min Rain = 0
KWVS 192345Z 35009KT 09/M05 A3025 RMK A01 T00891051  RH  037%=      5-min Rain = 0
KWVS 192350Z 35009KT 09/M05 A3025 RMK A01 T00861051  RH  037%=      5-min Rain = 0
KWVS 192355Z 35008KT 08/M05 A3026 RMK A01 T00831051  RH  038%=      5-min Rain = 0
KWVS 200000Z 35008KT 08/M05 A3026 RMK A01 T00781051  RH  040%=      5-min Rain = 0
KWVS 200005Z 35008KT 07/M05 A3026 RMK A01 T00731051  RH  041%=      5-min Rain = 0
KWVS 200010Z 35008KT 07/M05 A3026 RMK A01 T00661053  RH  043%=      5-min Rain = 0
KWVS 200015Z 35008KT 06/M05 A3026 RMK A01 T00611053  RH  044%=      5-min Rain = 0
KWVS 200020Z 35009KT 06/M05 A3026 RMK A01 T00571052  RH  045%=      5-min Rain = 0
KWVS 200025Z 34009KT 06/M05 A3026 RMK A01 T00551052  RH  046%=      5-min Rain = 0
KWVS 200030Z 34008KT 05/M05 A3026 RMK A01 T00521053  RH  047%=      5-min Rain = 0
KWVS 200035Z 33007KT 05/M05 A3026 RMK A01 T00491052  RH  048%=      5-min Rain = 0
KWVS 200040Z 33008KT 05/M05 A3026 RMK A01 T00471053  RH  049%=      5-min Rain = 0
KWVS 200045Z 34008KT 04/M05 A3026 RMK A01 T00441053  RH  050%=      5-min Rain = 0
KWVS 200050Z 36008KT 05/M05 A3026 RMK A01 T00451052  RH  049%=      5-min Rain = 0
KWVS 200055Z 36008KT 05/M05 A3027 RMK A01 T00451053  RH  049%=      5-min Rain = 0
KWVS 200100Z 36007KT 05/M05 A3027 RMK A01 T00461053  RH  049%=      5-min Rain = 0
KWVS 200105Z 35007KT 05/M05 A3027 RMK A01 T00451053  RH  049%=      5-min Rain = 0
KWVS 200110Z 35007KT 04/M05 A3027 RMK A01 T00441053  RH  050%=      5-min Rain = 0
KWVS 200115Z 35008KT 04/M05 A3027 RMK A01 T00401054  RH  051%=      5-min Rain = 0
KWVS 200120Z 00007KT 04/M05 A3027 RMK A01 T00371054  RH  052%=      5-min Rain = 0
KWVS 200125Z 01008KT 04/M05 A3027 RMK A01 T00381054  RH  051%=      5-min Rain = 0
KWVS 200130Z 01008KT 04/M05 A3027 RMK A01 T00371054  RH  052%=      5-min Rain = 0
KWVS 200135Z 01008KT 03/M05 A3027 RMK A01 T00331054  RH  053%=      5-min Rain = 0
KWVS 200140Z 35006KT 02/M06 A3028 RMK A01 T00231057  RH  056%=      5-min Rain = 0
KWVS 200145Z 34006KT 03/M05 A3028 RMK A01 T00261054  RH  056%=      5-min Rain = 0
KWVS 200150Z 35007KT 03/M05 A3028 RMK A01 T00281054  RH  055%=      5-min Rain = 0
KWVS 200155Z 35006KT 03/M05 A3027 RMK A01 T00311054  RH  054%=      5-min Rain = 0
KWVS 200200Z 00007KT 03/M05 A3027 RMK A01 T00321053  RH  053%=      5-min Rain = 0
KWVS 200205Z 01007KT 03/M05 A3026 RMK A01 T00321054  RH  053%=      5-min Rain = 0
KWVS 200210Z 02007KT 03/M05 A3026 RMK A01 T00301054  RH  054%=      5-min Rain = 0
KWVS 200215Z 02006KT 03/M05 A3026 RMK A01 T00291054  RH  054%=      5-min Rain = 0
KWVS 200220Z 03007KT 03/M05 A3026 RMK A01 T00291054  RH  055%=      5-min Rain = 0
KWVS 200225Z 03007KT 03/M05 A3026 RMK A01 T00271053  RH  055%=      5-min Rain = 0
KWVS 200230Z 03006KT 03/M05 A3026 RMK A01 T00271053  RH  056%=      5-min Rain = 0
KWVS 200235Z 01006KT 03/M05 A3027 RMK A01 T00281053  RH  055%=      5-min Rain = 0
KWVS 200240Z 01006KT 02/M05 A3027 RMK A01 T00241054  RH  056%=      5-min Rain = 0
KWVS 200245Z 01006KT 02/M05 A3027 RMK A01 T00221054  RH  057%=      5-min Rain = 0
KWVS 200250Z 01006KT 02/M05 A3028 RMK A01 T00201054  RH  058%=      5-min Rain = 0
KWVS 200255Z 01006KT 02/M05 A3028 RMK A01 T00181054  RH  059%=      5-min Rain = 0
KWVS 200300Z 01006KT 02/M05 A3028 RMK A01 T00171054  RH  060%=      5-min Rain = 0
KWVS 200305Z 02005KT 02/M05 A3028 RMK A01 T00161054  RH  060%=      5-min Rain = 0
KWVS 200310Z 02004KT 02/M05 A3029 RMK A01 T00201053  RH  059%=      5-min Rain = 0
KWVS 200315Z 01004KT 02/M06 A3029 RMK A01 T00181055  RH  059%=      5-min Rain = 0
KWVS 200320Z 01005KT 02/M06 A3029 RMK A01 T00161055  RH  060%=      5-min Rain = 0
KWVS 200325Z 02003KT 02/M05 A3029 RMK A01 T00161054  RH  060%=      5-min Rain = 0
KWVS 200330Z 03003KT 02/M05 A3029 RMK A01 T00201053  RH  059%=      5-min Rain = 0
KWVS 200335Z 04003KT 02/M05 A3029 RMK A01 T00231052  RH  058%=      5-min Rain = 0
KWVS 200340Z 05003KT 02/M05 A3029 RMK A01 T00241052  RH  057%=      5-min Rain = 0
KWVS 200345Z 03003KT 02/M05 A3029 RMK A01 T00221054  RH  057%=      5-min Rain = 0
KWVS 200350Z 00002KT 02/M05 A303 RMK A01 T00161054  RH  060%=      5-min Rain = 0
KWVS 200355Z 03003KT 02/M05 A3029 RMK A01 T00171053  RH  060%=      5-min Rain = 0
KWVS 200400Z 05005KT 02/M05 A3027 RMK A01 T00201051  RH  060%=      5-min Rain = 0
KWVS 200405Z 06005KT 03/M05 A3027 RMK A01 T00251048  RH  059%=      5-min Rain = 0
KWVS 200410Z 05006KT 02/M05 A3028 RMK A01 T00211051  RH  059%=      5-min Rain = 0
KWVS 200415Z 05006KT 01/M05 A3028 RMK A01 T00141051  RH  062%=      5-min Rain = 0
KWVS 200420Z 06006KT 02/M05 A3028 RMK A01 T00221046  RH  061%=      5-min Rain = 0
KWVS 200425Z 06006KT 02/M05 A3028 RMK A01 T00241047  RH  060%=      5-min Rain = 0
KWVS 200430Z 06007KT 02/M05 A3029 RMK A01 T00201047  RH  061%=      5-min Rain = 0
KWVS 200435Z 08005KT 02/M05 A3029 RMK A01 T00181048  RH  062%=      5-min Rain = 0
KWVS 200440Z 07005KT 02/M05 A3029 RMK A01 T00171047  RH  063%=      5-min Rain = 0
KWVS 200445Z 08007KT 02/M05 A3029 RMK A01 T00161049  RH  063%=      5-min Rain = 0
KWVS 200450Z 08006KT 01/M05 A3029 RMK A01 T00131047  RH  064%=      5-min Rain = 0
KWVS 200455Z 08007KT 01/M05 A3029 RMK A01 T00111048  RH  065%=      5-min Rain = 0
KWVS 200500Z 07006KT 01/M05 A3029 RMK A01 T00101049  RH  065%=      5-min Rain = 0
KWVS 200505Z 07007KT 01/M05 A3029 RMK A01 T00081050  RH  065%=      5-min Rain = 0
KWVS 200510Z 09006KT 00/M05 A3029 RMK A01 T00031051  RH  067%=      5-min Rain = 0
KWVS 200515Z 08006KT 00/05 A3029 RMK A01 T00000-52  RH  068%=      5-min Rain = 0
KWVS 200520Z 08006KT M00/M05 A303 RMK A01 T10011052  RH  068%=      5-min Rain = 0
KWVS 200525Z 08006KT 00/05 A3029 RMK A01 T00000-53  RH  067%=      5-min Rain = 0
KWVS 200530Z 09006KT M00/M06 A303 RMK A01 T10011055  RH  067%=      5-min Rain = 0
KWVS 200535Z 08006KT M00/M06 A303 RMK A01 T10011056  RH  066%=      5-min Rain = 0
KWVS 200540Z 08005KT 00/M06 A303 RMK A01 T00011060  RH  064%=      5-min Rain = 0
KWVS 200545Z 09005KT M00/M06 A3031 RMK A01 T10031063  RH  064%=      5-min Rain = 0
KWVS 200550Z 09004KT M00/M06 A3031 RMK A01 T10021063  RH  064%=      5-min Rain = 0
KWVS 200555Z 09003KT M00/M06 A3031 RMK A01 T10031064  RH  063%=      5-min Rain = 0

Page generated in 0.0285 seconds.